createdAt,value
2019-04-01T00:02:23.645Z,52.40
2019-04-01T00:04:52.053Z,54.00
2019-04-01T00:07:20.498Z,54.90
2019-04-01T00:09:48.913Z,55.20
2019-04-01T00:12:17.409Z,55.40
2019-04-01T00:14:45.833Z,56.00
2019-04-01T00:17:14.257Z,56.40
2019-04-01T00:19:42.704Z,56.70
2019-04-01T00:22:11.132Z,56.80
2019-04-01T00:24:39.542Z,56.30
2019-04-01T00:27:07.971Z,56.00
2019-04-01T00:29:36.433Z,56.50
2019-04-01T00:32:04.845Z,56.90
2019-04-01T00:34:33.289Z,56.60
2019-04-01T00:37:02.079Z,56.90
2019-04-01T00:39:30.501Z,57.00
2019-04-01T00:42:06.305Z,57.20
2019-04-01T00:44:34.709Z,57.50
2019-04-01T00:47:03.457Z,58.00
2019-04-01T00:49:31.871Z,58.30
2019-04-01T00:52:00.277Z,58.60
2019-04-01T00:54:28.699Z,59.50
2019-04-01T00:56:57.109Z,59.50
2019-04-01T00:59:25.543Z,60.20
2019-04-01T01:01:53.953Z,60.60
2019-04-01T01:04:22.373Z,60.60
2019-04-01T01:06:50.806Z,61.10
2019-04-01T01:09:19.277Z,61.00
2019-04-01T01:11:47.768Z,61.20
2019-04-01T01:14:16.182Z,61.40
2019-04-01T01:16:44.602Z,61.50
2019-04-01T01:19:13.025Z,61.60
2019-04-01T01:21:41.438Z,62.10
2019-04-01T01:24:09.882Z,62.40
2019-04-01T01:26:38.333Z,62.50
2019-04-01T01:29:06.771Z,62.80
2019-04-01T01:31:35.202Z,62.90
2019-04-01T01:34:03.641Z,62.60
2019-04-01T01:36:32.221Z,63.10
2019-04-01T01:39:00.665Z,63.70
2019-04-01T01:41:29.083Z,64.20
2019-04-01T01:43:57.525Z,64.30
2019-04-01T01:46:25.941Z,64.40
2019-04-01T01:48:54.667Z,64.70
2019-04-01T01:51:23.103Z,64.70
2019-04-01T01:53:51.533Z,65.40
2019-04-01T01:56:19.945Z,65.60
2019-04-01T01:58:48.374Z,66.30
2019-04-01T02:01:16.793Z,66.40
2019-04-01T02:03:45.234Z,66.80
2019-04-01T02:06:13.655Z,67.10
2019-04-01T02:08:42.057Z,67.10
2019-04-01T02:11:10.485Z,68.10
2019-04-01T02:13:38.896Z,67.60
2019-04-01T02:16:07.330Z,67.30
2019-04-01T02:18:35.755Z,67.60
2019-04-01T02:21:04.253Z,67.40
2019-04-01T02:23:32.723Z,68.10
2019-04-01T02:26:01.181Z,68.80
2019-04-01T02:28:29.620Z,68.70
2019-04-01T02:30:58.042Z,69.10
2019-04-01T02:33:26.460Z,68.80
2019-04-01T02:35:55.003Z,69.00
2019-04-01T02:38:23.523Z,68.50
2019-04-01T02:40:52.437Z,68.50
2019-04-01T02:43:20.838Z,69.40
2019-04-01T02:45:49.364Z,68.60
2019-04-01T02:48:17.867Z,69.10
2019-04-01T02:50:46.302Z,69.50
2019-04-01T02:53:14.709Z,69.50
2019-04-01T02:55:43.142Z,69.80
2019-04-01T02:58:11.534Z,70.00
2019-04-01T03:00:39.982Z,69.70
2019-04-01T03:03:08.400Z,69.80
2019-04-01T03:05:37.303Z,70.60
2019-04-01T03:08:05.717Z,70.50
2019-04-01T03:10:34.526Z,71.00
2019-04-01T03:13:02.937Z,70.90
2019-04-01T03:15:31.350Z,70.30
2019-04-01T03:17:59.807Z,71.00
2019-04-01T03:20:28.289Z,70.50
2019-04-01T03:22:56.717Z,70.30
2019-04-01T03:25:25.214Z,70.30
2019-04-01T03:27:53.617Z,70.70
2019-04-01T03:30:22.121Z,70.80
2019-04-01T03:32:50.618Z,71.40
2019-04-01T03:35:19.067Z,71.50
2019-04-01T03:37:47.499Z,72.60
2019-04-01T03:40:16.011Z,71.90
2019-04-01T03:42:44.421Z,73.10
2019-04-01T03:45:13.688Z,73.70
2019-04-01T03:47:42.115Z,74.10
2019-04-01T03:50:10.609Z,74.40
2019-04-01T03:52:39.025Z,74.40
2019-04-01T03:55:07.433Z,74.00
2019-04-01T03:57:35.887Z,73.80
2019-04-01T04:00:06.225Z,74.30
2019-04-01T04:02:34.633Z,74.30
2019-04-01T04:05:03.512Z,73.80
2019-04-01T04:07:31.956Z,73.70
2019-04-01T04:10:00.475Z,73.90
2019-04-01T04:12:29.061Z,74.40
2019-04-01T04:14:57.513Z,74.40
2019-04-01T04:17:25.934Z,74.50
2019-04-01T04:19:54.363Z,74.50
2019-04-01T04:22:22.858Z,75.30
2019-04-01T04:24:51.290Z,75.40
2019-04-01T04:27:19.715Z,75.50
2019-04-01T04:29:48.151Z,74.80
2019-04-01T04:32:16.917Z,75.00
2019-04-01T04:34:45.331Z,75.10
2019-04-01T04:37:13.882Z,75.10
2019-04-01T04:39:42.390Z,74.10
2019-04-01T04:42:10.836Z,74.80
2019-04-01T04:44:39.422Z,74.70
2019-04-01T04:47:07.920Z,74.60
2019-04-01T04:49:36.338Z,74.70
2019-04-01T04:52:05.467Z,75.20
2019-04-01T04:54:33.926Z,75.10
2019-04-01T04:57:02.381Z,76.30
2019-04-01T04:59:30.816Z,76.20
2019-04-01T05:01:59.473Z,76.20
2019-04-01T05:04:27.870Z,76.20
2019-04-01T05:06:56.295Z,76.40
2019-04-01T05:09:25.058Z,75.70
2019-04-01T05:11:53.506Z,76.10
2019-04-01T05:14:21.958Z,76.10
2019-04-01T05:16:50.386Z,76.40
2019-04-01T05:19:38.450Z,76.00
2019-04-01T05:22:07.767Z,76.00
2019-04-01T05:24:36.543Z,75.90
2019-04-01T05:27:04.958Z,76.40
2019-04-01T05:29:53.671Z,75.60
2019-04-01T05:32:22.636Z,75.90
2019-04-01T05:34:54.439Z,75.80
2019-04-01T05:37:22.854Z,75.40
2019-04-01T05:39:51.305Z,76.00
2019-04-01T05:42:20.108Z,76.20
2019-04-01T05:44:48.689Z,76.10
2019-04-01T05:47:18.372Z,76.00
2019-04-01T05:49:47.076Z,75.20
2019-04-01T05:52:15.517Z,75.50
2019-04-01T05:54:44.458Z,75.60
2019-04-01T05:57:14.133Z,74.40
2019-04-01T05:59:43.187Z,75.20
2019-04-01T06:02:11.737Z,75.50
2019-04-01T06:04:40.159Z,74.30
2019-04-01T06:07:08.566Z,73.90
2019-04-01T06:09:36.987Z,74.50
2019-04-01T06:12:05.397Z,73.60
2019-04-01T06:14:34.696Z,73.00
2019-04-01T06:17:03.269Z,70.90
2019-04-01T06:19:31.692Z,70.20
2019-04-01T06:22:00.125Z,69.90
2019-04-01T06:24:28.551Z,69.60
2019-04-01T06:26:57.407Z,68.80
2019-04-01T06:29:25.872Z,68.70
2019-04-01T06:31:54.276Z,68.30
2019-04-01T06:34:22.778Z,67.80
2019-04-01T06:36:51.559Z,66.80
2019-04-01T06:39:19.989Z,66.10
2019-04-01T06:41:48.681Z,64.70
2019-04-01T06:44:17.113Z,63.90
2019-04-01T06:46:45.560Z,62.70
2019-04-01T06:49:14.019Z,61.80
2019-04-01T06:51:42.489Z,61.00
2019-04-01T06:54:10.974Z,61.20
2019-04-01T06:56:39.965Z,59.90
2019-04-01T06:59:08.397Z,57.90
2019-04-01T07:01:36.813Z,57.20
2019-04-01T07:04:05.322Z,57.00
2019-04-01T07:06:33.721Z,55.80
2019-04-01T07:09:02.433Z,55.80
2019-04-01T07:11:30.915Z,56.40
2019-04-01T07:14:00.213Z,54.10
2019-04-01T07:16:28.720Z,54.60
2019-04-01T07:18:57.385Z,53.60
2019-04-01T07:21:25.891Z,54.30
2019-04-01T07:23:54.739Z,54.00
2019-04-01T07:26:23.158Z,52.50
2019-04-01T07:28:51.569Z,53.10
2019-04-01T07:31:19.989Z,52.40
2019-04-01T07:33:48.489Z,52.80
2019-04-01T07:36:16.977Z,51.40
2019-04-01T07:38:45.414Z,51.90
2019-04-01T07:41:13.837Z,50.50
2019-04-01T07:43:42.422Z,50.90
2019-04-01T07:46:10.846Z,50.90
2019-04-01T07:48:39.478Z,48.70
2019-04-01T07:51:08.726Z,48.20
2019-04-01T07:53:37.208Z,47.80
2019-04-01T07:56:07.509Z,47.40
2019-04-01T07:58:35.988Z,46.40
2019-04-01T08:01:04.473Z,46.40
2019-04-01T08:03:32.886Z,46.70
2019-04-01T08:06:01.391Z,47.00
2019-04-01T08:08:29.842Z,46.40
2019-04-01T08:10:58.389Z,46.60
2019-04-01T08:13:26.833Z,45.40
2019-04-01T08:15:55.249Z,44.10
2019-04-01T08:18:23.663Z,44.80
2019-04-01T08:20:52.147Z,45.20
2019-04-01T08:23:20.756Z,45.10
2019-04-01T08:25:49.181Z,43.60
2019-04-01T08:28:17.609Z,43.60
2019-04-01T08:30:46.117Z,43.40
2019-04-01T08:33:14.618Z,44.00
2019-04-01T08:35:43.099Z,44.20
2019-04-01T08:38:11.576Z,43.60
2019-04-01T08:40:40.366Z,44.00
2019-04-01T08:43:08.795Z,43.50
2019-04-01T08:45:37.295Z,44.00
2019-04-01T08:48:05.763Z,43.30
2019-04-01T08:50:34.241Z,42.90
2019-04-01T08:53:05.440Z,42.40
2019-04-01T08:55:33.845Z,42.50
2019-04-01T08:58:02.545Z,43.10
2019-04-01T09:00:31.118Z,43.50
2019-04-01T09:02:59.699Z,42.60
2019-04-01T09:05:28.570Z,42.10
2019-04-01T09:07:58.379Z,40.80
2019-04-01T09:10:26.780Z,40.00
2019-04-01T09:12:57.669Z,39.70
2019-04-01T09:15:26.101Z,40.40
2019-04-01T09:17:54.534Z,39.90
2019-04-01T09:20:22.938Z,39.40
2019-04-01T09:22:51.361Z,39.00
2019-04-01T09:25:19.895Z,39.40
2019-04-01T09:27:48.388Z,40.10
2019-04-01T09:30:18.794Z,39.40
2019-04-01T09:32:47.485Z,39.50
2019-04-01T09:35:16.109Z,39.60
2019-04-01T09:37:44.625Z,39.90
2019-04-01T09:40:14.695Z,40.60
2019-04-01T09:42:43.475Z,40.20
2019-04-01T09:45:12.655Z,40.90
2019-04-01T09:47:41.086Z,39.60
2019-04-01T09:50:09.590Z,39.40
2019-04-01T09:52:38.110Z,40.20
2019-04-01T09:55:06.994Z,40.50
2019-04-01T09:57:35.677Z,39.00
2019-04-01T10:00:06.654Z,38.40
2019-04-01T10:02:35.094Z,36.80
2019-04-01T10:05:04.675Z,37.60
2019-04-01T10:07:33.233Z,38.10
2019-04-01T10:10:01.778Z,38.40
2019-04-01T10:12:30.248Z,37.80
2019-04-01T10:14:58.701Z,38.20
2019-04-01T10:17:27.129Z,38.50
2019-04-01T10:19:55.565Z,38.90
2019-04-01T10:22:43.501Z,39.20
2019-04-01T10:25:12.186Z,40.00
2019-04-01T10:27:40.613Z,40.30
2019-04-01T10:30:10.183Z,40.00
2019-04-01T10:32:38.690Z,41.00
2019-04-01T10:35:08.335Z,41.90
2019-04-01T10:37:36.761Z,40.90
2019-04-01T10:40:07.807Z,41.70
2019-04-01T10:42:36.230Z,41.80
2019-04-01T10:45:07.184Z,40.40
2019-04-01T10:47:35.906Z,39.60
2019-04-01T10:50:06.109Z,39.10
2019-04-01T10:52:34.595Z,38.10
2019-04-01T10:55:03.258Z,37.40
2019-04-01T10:57:31.766Z,38.20
2019-04-01T11:00:00.435Z,38.40
2019-04-01T11:02:29.575Z,38.40
2019-04-01T11:04:58.157Z,37.60
2019-04-01T11:07:26.785Z,38.60
2019-04-01T11:09:55.197Z,38.30
2019-04-01T11:12:24.849Z,37.90
2019-04-01T11:14:53.529Z,38.00
2019-04-01T11:17:21.966Z,38.70
2019-04-01T11:19:50.410Z,37.90
2019-04-01T11:22:18.823Z,38.60
2019-04-01T11:24:47.308Z,38.50
2019-04-01T11:27:16.039Z,38.00
2019-04-01T11:29:44.472Z,38.00
2019-04-01T11:32:13.771Z,38.10
2019-04-01T11:34:42.444Z,37.70
2019-04-01T11:37:11.002Z,38.50
2019-04-01T11:39:39.522Z,37.70
2019-04-01T11:42:07.972Z,38.00
2019-04-01T11:44:36.495Z,38.10
2019-04-01T11:47:04.947Z,37.90
2019-04-01T11:49:33.421Z,38.70
2019-04-01T11:52:01.889Z,37.50
2019-04-01T11:54:30.535Z,37.20
2019-04-01T11:56:58.959Z,38.00
2019-04-01T11:59:27.478Z,38.40
2019-04-01T12:01:55.885Z,38.10
2019-04-01T12:04:25.270Z,38.20
2019-04-01T12:06:56.667Z,37.90
2019-04-01T12:09:25.128Z,38.10
2019-04-01T12:11:53.552Z,38.40
2019-04-01T12:14:21.972Z,38.20
2019-04-01T12:16:50.383Z,37.80
2019-04-01T12:19:18.819Z,37.50
2019-04-01T12:21:47.314Z,37.10
2019-04-01T12:24:15.758Z,37.10
2019-04-01T12:26:44.187Z,37.40
2019-04-01T12:29:14.438Z,37.40
2019-04-01T12:31:42.833Z,37.00
2019-04-01T12:34:11.270Z,37.70
2019-04-01T12:36:39.669Z,38.00
2019-04-01T12:39:08.657Z,36.80
2019-04-01T12:41:37.086Z,35.50
2019-04-01T12:44:05.773Z,35.70
2019-04-01T12:46:34.366Z,36.60
2019-04-01T12:49:02.849Z,36.60
2019-04-01T12:51:31.319Z,37.90
2019-04-01T12:53:59.949Z,37.80
2019-04-01T12:56:28.369Z,37.70
2019-04-01T12:58:56.809Z,38.00
2019-04-01T13:01:25.225Z,37.10
2019-04-01T13:03:54.096Z,36.50
2019-04-01T13:06:22.598Z,36.80
2019-04-01T13:08:51.278Z,35.70
2019-04-01T13:11:20.825Z,36.30
2019-04-01T13:13:49.280Z,36.40
2019-04-01T13:16:17.685Z,36.40
2019-04-01T13:18:47.288Z,35.60
2019-04-01T13:21:16.128Z,35.50
2019-04-01T13:23:44.624Z,35.30
2019-04-01T13:26:13.210Z,35.70
2019-04-01T13:28:42.491Z,35.90
2019-04-01T13:31:11.298Z,35.50
2019-04-01T13:33:39.801Z,35.40
2019-04-01T13:36:08.261Z,35.50
2019-04-01T13:38:36.709Z,36.20
2019-04-01T13:41:05.149Z,35.60
2019-04-01T13:43:33.713Z,36.20
2019-04-01T13:46:02.162Z,35.90
2019-04-01T13:48:30.566Z,36.20
2019-04-01T13:50:59.010Z,36.30
2019-04-01T13:53:28.575Z,36.00
2019-04-01T13:55:57.165Z,35.70
2019-04-01T13:58:25.573Z,35.60
2019-04-01T14:00:53.993Z,35.40
2019-04-01T14:03:22.401Z,36.20
2019-04-01T14:05:50.926Z,36.10
2019-04-01T14:08:19.395Z,34.80
2019-04-01T14:10:48.234Z,34.70
2019-04-01T14:13:16.658Z,35.20
2019-04-01T14:15:45.083Z,35.50
2019-04-01T14:18:13.486Z,35.70
2019-04-01T14:20:42.801Z,36.20
2019-04-01T14:23:11.263Z,35.40
2019-04-01T14:25:39.687Z,35.90
2019-04-01T14:28:09.292Z,35.10
2019-04-01T14:30:37.940Z,34.90
2019-04-01T14:33:06.344Z,35.20
2019-04-01T14:35:35.530Z,35.60
2019-04-01T14:38:04.541Z,35.90
2019-04-01T14:40:32.969Z,36.20
2019-04-01T14:43:01.377Z,36.40
2019-04-01T14:45:30.207Z,35.90
2019-04-01T14:47:58.637Z,35.00
2019-04-01T14:50:27.064Z,34.50
2019-04-01T14:52:55.515Z,34.30
2019-04-01T14:55:24.013Z,34.70
2019-04-01T14:57:52.767Z,35.10
2019-04-01T15:00:21.257Z,35.10
2019-04-01T15:02:49.771Z,34.80
2019-04-01T15:05:18.189Z,35.00
2019-04-01T15:07:47.132Z,34.80
2019-04-01T15:10:16.185Z,35.20
2019-04-01T15:12:44.699Z,35.20
2019-04-01T15:15:13.955Z,35.20
2019-04-01T15:17:42.377Z,35.30
2019-04-01T15:20:11.247Z,35.70
2019-04-01T15:22:39.694Z,35.60
2019-04-01T15:25:08.647Z,35.60
2019-04-01T15:27:37.077Z,35.20
2019-04-01T15:30:08.226Z,35.40
2019-04-01T15:32:36.681Z,35.80
2019-04-01T15:35:07.240Z,36.60
2019-04-01T15:37:35.715Z,36.10
2019-04-01T15:40:06.844Z,36.20
2019-04-01T15:42:35.257Z,35.90
2019-04-01T15:45:04.170Z,36.30
2019-04-01T15:47:32.657Z,36.40
2019-04-01T15:50:01.091Z,35.50
2019-04-01T15:52:29.560Z,35.50
2019-04-01T15:54:58.118Z,35.40
2019-04-01T15:57:27.172Z,35.20
2019-04-01T15:59:55.962Z,35.10
2019-04-01T16:02:24.424Z,35.30
2019-04-01T16:04:53.022Z,35.30
2019-04-01T16:07:22.588Z,35.00
2019-04-01T16:09:51.147Z,35.00
2019-04-01T16:12:20.441Z,34.80
2019-04-01T16:14:48.869Z,35.00
2019-04-01T16:17:17.317Z,34.90
2019-04-01T16:19:45.756Z,35.90
2019-04-01T16:22:14.177Z,35.50
2019-04-01T16:24:42.593Z,36.00
2019-04-01T16:27:11.036Z,35.80
2019-04-01T16:29:39.517Z,35.90
2019-04-01T16:32:08.323Z,36.00
2019-04-01T16:34:36.731Z,36.10
2019-04-01T16:37:05.140Z,36.30
2019-04-01T16:39:33.846Z,36.20
2019-04-01T16:42:02.299Z,36.50
2019-04-01T16:44:30.886Z,36.50
2019-04-01T16:46:59.303Z,37.40
2019-04-01T16:49:27.729Z,36.70
2019-04-01T16:51:56.178Z,36.40
2019-04-01T16:54:24.676Z,36.30
2019-04-01T16:56:53.520Z,36.20
2019-04-01T16:59:21.947Z,36.00
2019-04-01T17:01:51.368Z,36.30
2019-04-01T17:04:21.616Z,36.40
2019-04-01T17:06:50.317Z,36.40
2019-04-01T17:09:19.138Z,36.60
2019-04-01T17:11:47.647Z,36.50
2019-04-01T17:14:16.507Z,36.40
2019-04-01T17:16:44.933Z,36.60
2019-04-01T17:19:13.422Z,36.60
2019-04-01T17:21:41.889Z,36.70
2019-04-01T17:24:10.359Z,36.80
2019-04-01T17:26:56.905Z,37.10
2019-04-01T17:29:25.980Z,37.10
2019-04-01T17:31:54.749Z,37.50
2019-04-01T17:34:23.223Z,37.60
2019-04-01T17:36:51.722Z,38.00
2019-04-01T17:39:20.136Z,38.00
2019-04-01T17:41:48.801Z,38.10
2019-04-01T17:44:17.495Z,38.30
2019-04-01T17:46:46.414Z,38.70
2019-04-01T17:49:14.842Z,38.60
2019-04-01T17:51:43.267Z,38.90
2019-04-01T17:54:11.689Z,39.00
2019-04-01T17:56:40.101Z,39.60
2019-04-01T17:59:08.567Z,39.00
2019-04-01T18:01:37.012Z,39.10
2019-04-01T18:04:05.547Z,39.10
2019-04-01T18:06:34.038Z,39.20
2019-04-01T18:09:02.995Z,39.20
2019-04-01T18:11:31.754Z,39.40
2019-04-01T18:14:02.716Z,39.30
2019-04-01T18:16:31.440Z,39.40
2019-04-01T18:19:00.047Z,39.30
2019-04-01T18:21:28.766Z,39.50
2019-04-01T18:23:57.196Z,39.40
2019-04-01T18:26:25.646Z,39.60
2019-04-01T18:28:54.129Z,39.70
2019-04-01T18:31:22.574Z,39.90
2019-04-01T18:33:56.478Z,39.90
2019-04-01T18:36:22.219Z,40.10
2019-04-01T18:38:51.555Z,40.10
2019-04-01T18:41:20.039Z,40.10
2019-04-01T18:43:48.489Z,40.40
2019-04-01T18:46:20.789Z,40.60
2019-04-01T18:48:48.240Z,40.60
2019-04-01T18:51:20.208Z,40.90
2019-04-01T18:53:47.262Z,41.00
2019-04-01T18:56:15.703Z,41.60
2019-04-01T18:58:44.436Z,42.00
2019-04-01T19:01:12.895Z,42.40
2019-04-01T19:03:42.997Z,42.80
2019-04-01T19:06:11.690Z,42.90
2019-04-01T19:08:40.114Z,42.90
2019-04-01T19:11:10.123Z,42.90
2019-04-01T19:13:38.722Z,43.10
2019-04-01T19:16:08.202Z,42.80
2019-04-01T19:18:39.558Z,42.80
2019-04-01T19:21:08.340Z,42.80
2019-04-01T19:23:37.065Z,42.80
2019-04-01T19:26:06.016Z,42.90
2019-04-01T19:28:34.450Z,42.90
2019-04-01T19:31:02.888Z,43.00
2019-04-01T19:33:31.576Z,43.30
2019-04-01T19:36:01.245Z,43.60
2019-04-01T19:38:30.136Z,44.00
2019-04-01T19:40:59.928Z,44.50
2019-04-01T19:43:28.677Z,45.00
2019-04-01T19:45:57.120Z,45.20
2019-04-01T19:48:25.604Z,45.20
2019-04-01T19:50:54.156Z,45.30
2019-04-01T19:53:24.190Z,45.50
2019-04-01T19:55:52.784Z,45.60
2019-04-01T19:58:21.630Z,45.80
2019-04-01T20:00:50.094Z,46.10
2019-04-01T20:03:18.501Z,46.20
2019-04-01T20:05:46.931Z,46.20
2019-04-01T20:08:16.311Z,46.40
2019-04-01T20:10:46.196Z,46.60
2019-04-01T20:13:15.217Z,46.90
2019-04-01T20:15:43.674Z,46.80
2019-04-01T20:18:12.149Z,47.20
2019-04-01T20:20:41.583Z,47.30
2019-04-01T20:23:10.315Z,47.30
2019-04-01T20:25:38.734Z,47.20
2019-04-01T20:28:07.168Z,47.10
2019-04-01T20:30:35.623Z,47.70
2019-04-01T20:33:16.498Z,47.70
2019-04-01T20:35:34.582Z,47.70
2019-04-01T20:38:03.173Z,47.70
2019-04-01T20:40:31.629Z,47.50
2019-04-01T20:43:00.058Z,47.60
2019-04-01T20:45:28.497Z,47.80
2019-04-01T20:47:57.016Z,48.10
2019-04-01T20:50:25.634Z,48.00
2019-04-01T20:52:54.155Z,48.40
2019-04-01T20:55:22.565Z,48.00
2019-04-01T20:57:51.008Z,48.10
2019-04-01T21:00:19.945Z,48.20
2019-04-01T21:02:48.693Z,48.50
2019-04-01T21:05:17.173Z,48.60
2019-04-01T21:07:47.086Z,48.90
2019-04-01T21:10:15.884Z,48.60
2019-04-01T21:12:44.338Z,48.40
2019-04-01T21:15:13.181Z,48.60
2019-04-01T21:17:41.660Z,48.40
2019-04-01T21:20:12.219Z,48.50
2019-04-01T21:22:41.565Z,48.80
2019-04-01T21:25:10.071Z,49.00
2019-04-01T21:27:38.634Z,49.30
2019-04-01T21:30:10.820Z,49.50
2019-04-01T21:32:39.271Z,49.80
2019-04-01T21:35:09.459Z,49.70
2019-04-01T21:37:38.188Z,49.70
2019-04-01T21:40:07.733Z,49.50
2019-04-01T21:42:36.522Z,49.20
2019-04-01T21:45:08.547Z,49.70
2019-04-01T21:47:36.968Z,49.70
2019-04-01T21:50:07.266Z,49.40
2019-04-01T21:52:35.693Z,49.90
2019-04-01T21:55:07.872Z,50.60
2019-04-01T21:57:35.305Z,50.90
2019-04-01T22:00:06.006Z,50.70
2019-04-01T22:02:36.178Z,51.30
2019-04-01T22:05:07.297Z,51.50
2019-04-01T22:07:35.803Z,51.50
2019-04-01T22:10:05.385Z,51.40
2019-04-01T22:12:33.805Z,51.80
2019-04-01T22:15:02.218Z,52.00
2019-04-01T22:17:30.652Z,52.20
2019-04-01T22:19:59.097Z,51.50
2019-04-01T22:22:27.866Z,51.50
2019-04-01T22:24:56.395Z,52.70
2019-04-01T22:27:24.917Z,53.00
2019-04-01T22:29:53.728Z,53.10
2019-04-01T22:32:22.144Z,53.50
2019-04-01T22:34:50.577Z,53.90
2019-04-01T22:37:27.183Z,54.20
2019-04-01T22:39:49.161Z,54.00
2019-04-01T22:42:17.618Z,53.90
2019-04-01T22:44:46.021Z,53.70
2019-04-01T22:47:16.347Z,53.70
2019-04-01T22:49:44.603Z,53.30
2019-04-01T22:52:13.029Z,53.70
2019-04-01T22:54:41.494Z,53.30
2019-04-01T22:57:09.933Z,52.60
2019-04-01T22:59:38.359Z,52.00
2019-04-01T23:02:06.883Z,51.60
2019-04-01T23:04:36.933Z,51.00
2019-04-01T23:07:05.614Z,50.40
2019-04-01T23:09:34.088Z,50.00
2019-04-01T23:12:02.509Z,49.80
2019-04-01T23:14:30.981Z,49.90
2019-04-01T23:16:59.480Z,50.40
2019-04-01T23:19:27.924Z,50.30
2019-04-01T23:21:56.329Z,50.60
2019-04-01T23:24:25.090Z,50.70
2019-04-01T23:26:55.130Z,50.60
2019-04-01T23:29:23.817Z,50.60
2019-04-01T23:31:52.240Z,50.50
2019-04-01T23:34:20.648Z,50.20
2019-04-01T23:36:49.060Z,50.20
2019-04-01T23:39:17.524Z,49.50
2019-04-01T23:41:46.021Z,49.80
2019-04-01T23:44:14.505Z,49.60
2019-04-01T23:46:43.055Z,49.40
2019-04-01T23:49:11.580Z,48.60
2019-04-01T23:51:40.522Z,48.10
2019-04-01T23:54:08.937Z,48.30
2019-04-01T23:56:37.363Z,47.90
2019-04-01T23:59:06.053Z,47.90
